createdAt,value
2023-05-12T00:00:07.827Z,4.07
2023-05-12T00:00:20.203Z,4.72
2023-05-12T00:00:32.308Z,6.93
2023-05-12T00:00:44.277Z,6.93
2023-05-12T00:00:59.666Z,5.10
2023-05-12T00:01:15.603Z,7.10
2023-05-12T00:01:27.523Z,6.25
2023-05-12T00:01:39.429Z,5.03
2023-05-12T00:01:51.350Z,5.25
2023-05-12T00:02:03.382Z,5.50
2023-05-12T00:02:16.148Z,6.10
2023-05-12T00:02:28.195Z,5.50
2023-05-12T00:02:40.367Z,5.47
2023-05-12T00:02:52.466Z,5.28
2023-05-12T00:03:04.571Z,5.47
2023-05-12T00:03:16.675Z,4.85
2023-05-12T00:03:28.925Z,5.47
2023-05-12T00:03:41.644Z,4.65
2023-05-12T00:03:54.142Z,4.20
2023-05-12T00:04:09.523Z,4.68
2023-05-12T00:04:21.649Z,5.75
2023-05-12T00:04:33.773Z,6.32
2023-05-12T00:04:45.843Z,6.20
2023-05-12T00:04:57.859Z,6.30
2023-05-12T00:05:10.351Z,7.65
2023-05-12T00:05:22.379Z,9.02
2023-05-12T00:05:34.319Z,7.20
2023-05-12T00:05:46.276Z,7.63
2023-05-12T00:06:00.384Z,5.68
2023-05-12T00:06:12.372Z,4.47
2023-05-12T00:06:24.327Z,4.38
2023-05-12T00:06:36.337Z,5.88
2023-05-12T00:06:48.281Z,6.05
2023-05-12T00:07:00.223Z,5.78
2023-05-12T00:07:13.800Z,5.45
2023-05-12T00:07:25.818Z,4.93
2023-05-12T00:07:37.809Z,4.75
2023-05-12T00:07:49.977Z,4.53
2023-05-12T00:08:01.917Z,3.85
2023-05-12T00:08:13.942Z,4.40
2023-05-12T00:08:26.002Z,6.88
2023-05-12T00:08:38.144Z,6.40
2023-05-12T00:08:50.610Z,6.40
2023-05-12T00:09:05.318Z,5.80
2023-05-12T00:09:17.249Z,6.10
2023-05-12T00:09:29.282Z,4.88
2023-05-12T00:09:47.141Z,4.68
2023-05-12T00:09:59.092Z,7.53
2023-05-12T00:10:11.253Z,8.40
2023-05-12T00:10:26.606Z,6.72
2023-05-12T00:10:38.659Z,5.05
2023-05-12T00:10:50.612Z,6.93
2023-05-12T00:11:02.830Z,6.80
2023-05-12T00:11:14.775Z,5.20
2023-05-12T00:11:26.773Z,5.00
2023-05-12T00:11:38.981Z,4.88
2023-05-12T00:11:50.942Z,7.47
2023-05-12T00:12:03.664Z,7.35
2023-05-12T00:12:15.705Z,8.48
2023-05-12T00:12:27.681Z,6.38
2023-05-12T00:12:39.609Z,4.97
2023-05-12T00:12:51.634Z,4.50
2023-05-12T00:13:03.664Z,5.07
2023-05-12T00:13:18.316Z,6.07
2023-05-12T00:13:30.272Z,5.55
2023-05-12T00:13:42.276Z,4.13
2023-05-12T00:13:55.499Z,3.90
2023-05-12T00:14:07.503Z,4.38
2023-05-12T00:14:20.111Z,4.80
2023-05-12T00:14:32.042Z,4.72
2023-05-12T00:14:44.041Z,5.30
2023-05-12T00:14:56.147Z,4.88
2023-05-12T00:15:08.816Z,5.00
2023-05-12T00:15:21.117Z,4.75
2023-05-12T00:15:33.041Z,3.83
2023-05-12T00:15:44.944Z,6.97
2023-05-12T00:15:58.960Z,7.50
2023-05-12T00:16:11.282Z,7.35
2023-05-12T00:16:23.454Z,4.25
2023-05-12T00:16:35.581Z,3.90
2023-05-12T00:16:51.630Z,4.20
2023-05-12T00:17:06.646Z,4.80
2023-05-12T00:17:18.635Z,4.22
2023-05-12T00:17:30.608Z,3.90
2023-05-12T00:17:42.759Z,4.85
2023-05-12T00:17:54.843Z,6.18
2023-05-12T00:18:06.769Z,5.20
2023-05-12T00:18:18.739Z,4.35
2023-05-12T00:18:30.752Z,4.13
2023-05-12T00:18:42.863Z,4.05
2023-05-12T00:18:55.115Z,4.13
2023-05-12T00:19:07.349Z,5.13
2023-05-12T00:19:20.226Z,4.72
2023-05-12T00:19:33.713Z,4.90
2023-05-12T00:19:45.667Z,5.72
2023-05-12T00:19:57.603Z,5.70
2023-05-12T00:20:10.230Z,4.82
2023-05-12T00:20:22.516Z,4.05
2023-05-12T00:20:34.644Z,3.95
2023-05-12T00:20:46.622Z,4.32
2023-05-12T00:20:58.584Z,3.80
2023-05-12T00:21:12.209Z,4.05
2023-05-12T00:21:24.305Z,4.68
2023-05-12T00:21:36.402Z,5.13
2023-05-12T00:21:48.285Z,4.93
2023-05-12T00:22:00.244Z,4.22
2023-05-12T00:22:12.561Z,3.88
2023-05-12T00:22:24.605Z,3.75
2023-05-12T00:22:36.533Z,4.35
2023-05-12T00:22:48.462Z,4.32
2023-05-12T00:23:00.378Z,4.07
2023-05-12T00:23:12.322Z,4.60
2023-05-12T00:23:24.371Z,5.53
2023-05-12T00:23:36.454Z,6.93
2023-05-12T00:23:48.354Z,6.20
2023-05-12T00:24:00.232Z,5.97
2023-05-12T00:24:12.219Z,5.53
2023-05-12T00:24:24.127Z,5.45
2023-05-12T00:24:36.079Z,5.03
2023-05-12T00:24:48.020Z,5.35
2023-05-12T00:24:59.947Z,5.35
2023-05-12T00:25:11.938Z,5.22
2023-05-12T00:25:23.878Z,4.28
2023-05-12T00:25:35.786Z,4.07
2023-05-12T00:25:47.894Z,3.97
2023-05-12T00:25:59.918Z,4.80
2023-05-12T00:26:11.971Z,5.90
2023-05-12T00:26:23.971Z,7.13
2023-05-12T00:26:35.874Z,8.02
2023-05-12T00:26:48.542Z,9.65
2023-05-12T00:27:00.768Z,8.20
2023-05-12T00:27:13.935Z,6.95
2023-05-12T00:27:25.907Z,6.90
2023-05-12T00:27:37.815Z,6.95
2023-05-12T00:27:49.710Z,7.60
2023-05-12T00:28:01.735Z,6.40
2023-05-12T00:28:13.733Z,6.82
2023-05-12T00:28:25.646Z,6.78
2023-05-12T00:28:37.608Z,5.32
2023-05-12T00:28:49.542Z,4.45
2023-05-12T00:29:01.504Z,5.10
2023-05-12T00:29:13.403Z,6.32
2023-05-12T00:29:25.345Z,6.25
2023-05-12T00:29:37.242Z,5.05
2023-05-12T00:29:49.239Z,4.78
2023-05-12T00:30:01.131Z,4.00
2023-05-12T00:30:13.314Z,4.10
2023-05-12T00:30:25.553Z,5.15
2023-05-12T00:30:37.847Z,6.90
2023-05-12T00:30:49.728Z,6.55
2023-05-12T00:31:03.716Z,5.85
2023-05-12T00:31:16.073Z,5.60
2023-05-12T00:31:29.922Z,4.40
2023-05-12T00:31:42.040Z,4.10
2023-05-12T00:31:55.514Z,3.97
2023-05-12T00:32:08.199Z,4.43
2023-05-12T00:32:20.225Z,4.35
2023-05-12T00:32:32.505Z,3.90
2023-05-12T00:32:44.502Z,3.85
2023-05-12T00:32:56.520Z,3.67
2023-05-12T00:33:08.440Z,5.35
2023-05-12T00:33:20.396Z,6.15
2023-05-12T00:33:32.374Z,6.00
2023-05-12T00:33:44.267Z,4.20
2023-05-12T00:33:56.463Z,3.58
2023-05-12T00:34:08.393Z,3.80
2023-05-12T00:34:20.364Z,4.22
2023-05-12T00:34:32.346Z,4.57
2023-05-12T00:34:44.296Z,4.43
2023-05-12T00:34:57.364Z,3.97
2023-05-12T00:35:09.789Z,3.90
2023-05-12T00:35:21.819Z,3.80
2023-05-12T00:35:33.704Z,4.00
2023-05-12T00:35:45.733Z,4.68
2023-05-12T00:36:00.353Z,4.57
2023-05-12T00:36:12.234Z,4.97
2023-05-12T00:36:24.521Z,5.05
2023-05-12T00:36:36.453Z,5.80
2023-05-12T00:36:48.452Z,6.20
2023-05-12T00:37:00.382Z,5.10
2023-05-12T00:37:12.306Z,6.57
2023-05-12T00:37:24.334Z,6.20
2023-05-12T00:37:36.214Z,5.80
2023-05-12T00:37:48.121Z,5.35
2023-05-12T00:38:00.079Z,5.00
2023-05-12T00:38:12.691Z,4.55
2023-05-12T00:38:24.662Z,4.60
2023-05-12T00:38:37.323Z,4.75
2023-05-12T00:38:49.291Z,4.70
2023-05-12T00:39:01.296Z,4.85
2023-05-12T00:39:13.529Z,4.47
2023-05-12T00:39:25.534Z,4.00
2023-05-12T00:39:38.025Z,4.05
2023-05-12T00:39:49.937Z,4.63
2023-05-12T00:40:01.842Z,5.57
2023-05-12T00:40:13.880Z,5.32
2023-05-12T00:40:25.819Z,4.72
2023-05-12T00:40:37.734Z,3.65
2023-05-12T00:40:49.639Z,3.70
2023-05-12T00:41:01.532Z,3.72
2023-05-12T00:41:13.614Z,4.10
2023-05-12T00:41:25.817Z,4.00
2023-05-12T00:41:37.802Z,3.97
2023-05-12T00:41:58.213Z,3.80
2023-05-12T00:42:11.824Z,4.00
2023-05-12T00:42:23.713Z,4.22
2023-05-12T00:42:36.009Z,3.88
2023-05-12T00:42:47.941Z,4.18
2023-05-12T00:42:59.914Z,5.35
2023-05-12T00:43:11.793Z,6.00
2023-05-12T00:43:23.673Z,6.05
2023-05-12T00:43:36.106Z,4.65
2023-05-12T00:43:48.102Z,4.78
2023-05-12T00:44:00.005Z,6.00
2023-05-12T00:44:12.168Z,5.18
2023-05-12T00:44:24.174Z,5.25
2023-05-12T00:44:36.980Z,4.00
2023-05-12T00:44:48.926Z,3.83
2023-05-12T00:45:01.004Z,4.10
2023-05-12T00:45:12.989Z,4.00
2023-05-12T00:45:24.990Z,4.25
2023-05-12T00:45:37.562Z,3.90
2023-05-12T00:45:49.684Z,3.50
2023-05-12T00:46:02.572Z,3.53
2023-05-12T00:46:14.896Z,5.75
2023-05-12T00:46:27.380Z,5.50
2023-05-12T00:46:39.636Z,4.03
2023-05-12T00:46:52.762Z,3.58
2023-05-12T00:47:05.871Z,3.65
2023-05-12T00:47:20.046Z,4.05
2023-05-12T00:47:34.820Z,4.22
2023-05-12T00:47:46.797Z,4.93
2023-05-12T00:47:58.938Z,4.82
2023-05-12T00:48:11.037Z,4.10
2023-05-12T00:48:23.337Z,4.05
2023-05-12T00:48:36.121Z,3.90
2023-05-12T00:48:48.931Z,4.25
2023-05-12T00:49:01.322Z,4.68
2023-05-12T00:49:13.683Z,4.60
2023-05-12T00:49:26.804Z,5.75
2023-05-12T00:49:42.568Z,7.47
2023-05-12T00:49:54.763Z,5.75
2023-05-12T00:50:08.402Z,4.30
2023-05-12T00:50:21.289Z,4.68
2023-05-12T00:50:34.270Z,5.35
2023-05-12T00:50:46.220Z,5.32
2023-05-12T00:50:59.260Z,6.35
2023-05-12T00:51:12.211Z,5.53
2023-05-12T00:51:26.355Z,5.38
2023-05-12T00:51:39.478Z,5.60
2023-05-12T00:51:51.452Z,4.88
2023-05-12T00:52:03.666Z,6.70
2023-05-12T00:52:15.711Z,7.82
2023-05-12T00:52:27.800Z,7.25
2023-05-12T00:52:39.746Z,5.85
2023-05-12T00:52:52.172Z,4.88
2023-05-12T00:53:04.225Z,5.13
2023-05-12T00:53:16.264Z,5.85
2023-05-12T00:53:34.986Z,5.60
2023-05-12T00:53:53.289Z,7.20
2023-05-12T00:54:05.427Z,7.28
2023-05-12T00:54:17.402Z,6.85
2023-05-12T00:54:30.421Z,5.68
2023-05-12T00:54:43.834Z,7.25
2023-05-12T00:54:55.969Z,6.57
2023-05-12T00:55:08.516Z,6.43
2023-05-12T00:55:20.658Z,5.35
2023-05-12T00:55:33.367Z,5.28
2023-05-12T00:55:45.322Z,5.93
2023-05-12T00:55:57.573Z,6.38
2023-05-12T00:56:10.929Z,5.15
2023-05-12T00:56:23.550Z,4.15
2023-05-12T00:56:39.392Z,4.40
2023-05-12T00:56:51.578Z,5.97
2023-05-12T00:57:03.743Z,6.65
2023-05-12T00:57:15.700Z,6.30
2023-05-12T00:57:28.123Z,6.22
2023-05-12T00:57:43.582Z,6.82
2023-05-12T00:57:55.687Z,6.45
2023-05-12T00:58:08.168Z,5.43
2023-05-12T00:58:20.074Z,8.77
2023-05-12T00:58:32.112Z,9.13
2023-05-12T00:58:44.372Z,7.07
2023-05-12T00:58:56.347Z,4.90
2023-05-12T00:59:08.886Z,5.63
2023-05-12T00:59:20.840Z,4.93
2023-05-12T00:59:32.879Z,5.35
2023-05-12T00:59:44.890Z,6.82
2023-05-12T00:59:56.861Z,6.15
2023-05-12T01:00:09.263Z,5.07
2023-05-12T01:00:22.431Z,5.40
2023-05-12T01:00:34.498Z,7.50
2023-05-12T01:00:46.532Z,8.43
2023-05-12T01:00:58.572Z,6.25
2023-05-12T01:01:10.660Z,5.30
2023-05-12T01:01:22.812Z,8.13
2023-05-12T01:01:35.626Z,9.13
2023-05-12T01:01:49.583Z,6.60
2023-05-12T01:02:01.706Z,5.47
2023-05-12T01:02:14.043Z,4.35
2023-05-12T01:02:26.107Z,4.55
2023-05-12T01:02:39.016Z,6.75
2023-05-12T01:02:51.164Z,7.03
2023-05-12T01:03:04.157Z,6.15
2023-05-12T01:03:17.245Z,4.78
2023-05-12T01:03:30.699Z,4.45
2023-05-12T01:03:43.730Z,4.90
2023-05-12T01:03:55.765Z,5.22
2023-05-12T01:04:07.794Z,6.07
2023-05-12T01:04:19.783Z,6.40
2023-05-12T01:04:32.838Z,6.28
2023-05-12T01:04:44.805Z,4.72
2023-05-12T01:04:56.915Z,5.28
2023-05-12T01:05:09.896Z,5.28
2023-05-12T01:05:21.929Z,4.80
2023-05-12T01:05:42.562Z,4.72
2023-05-12T01:06:01.408Z,6.50
2023-05-12T01:06:20.586Z,6.68
2023-05-12T01:06:42.689Z,5.18
2023-05-12T01:06:59.721Z,5.13
2023-05-12T01:07:25.311Z,5.40
2023-05-12T01:07:39.192Z,5.40
2023-05-12T01:07:51.774Z,4.47
2023-05-12T01:08:04.543Z,4.65
2023-05-12T01:08:17.198Z,3.83
2023-05-12T01:08:29.637Z,3.88
2023-05-12T01:08:45.280Z,4.28
2023-05-12T01:08:58.024Z,5.25
2023-05-12T01:09:10.346Z,6.20
2023-05-12T01:09:22.566Z,5.40
2023-05-12T01:09:35.945Z,3.60
2023-05-12T01:09:48.481Z,3.20
2023-05-12T01:10:00.699Z,3.95
2023-05-12T01:10:20.451Z,3.65
2023-05-12T01:10:32.763Z,3.22
2023-05-12T01:10:45.012Z,5.35
2023-05-12T01:10:57.034Z,5.35
2023-05-12T01:11:09.051Z,4.38
2023-05-12T01:11:22.672Z,2.42
2023-05-12T01:11:34.617Z,2.88
2023-05-12T01:11:46.529Z,2.83
2023-05-12T01:11:58.502Z,3.38
2023-05-12T01:12:10.460Z,4.85
2023-05-12T01:12:23.392Z,4.78
2023-05-12T01:12:35.282Z,3.13
2023-05-12T01:12:48.183Z,3.08
2023-05-12T01:13:00.152Z,3.10
2023-05-12T01:13:12.372Z,3.45
2023-05-12T01:13:24.306Z,3.40
2023-05-12T01:13:37.132Z,3.20
2023-05-12T01:13:49.073Z,2.88
2023-05-12T01:14:01.726Z,3.13
2023-05-12T01:14:13.634Z,4.05
2023-05-12T01:14:25.529Z,3.72
2023-05-12T01:14:37.937Z,4.10
2023-05-12T01:14:54.862Z,3.58
2023-05-12T01:15:07.413Z,2.90
2023-05-12T01:15:19.531Z,2.97
2023-05-12T01:15:32.422Z,3.40
2023-05-12T01:15:48.013Z,4.03
2023-05-12T01:16:02.399Z,2.90
2023-05-12T01:16:16.195Z,3.08
2023-05-12T01:16:35.011Z,5.00
2023-05-12T01:16:51.969Z,4.20
2023-05-12T01:17:10.195Z,2.92
2023-05-12T01:17:29.352Z,2.95
2023-05-12T01:17:47.684Z,3.30
2023-05-12T01:18:02.906Z,2.90
2023-05-12T01:18:16.173Z,2.53
2023-05-12T01:18:28.885Z,3.70
2023-05-12T01:18:44.029Z,3.67
2023-05-12T01:18:56.752Z,3.15
2023-05-12T01:19:19.199Z,2.90
2023-05-12T01:19:49.595Z,2.38
2023-05-12T01:20:03.718Z,2.80
2023-05-12T01:20:17.753Z,2.50
2023-05-12T01:20:31.910Z,2.50
2023-05-12T01:20:44.668Z,2.50
2023-05-12T01:20:57.110Z,3.20
2023-05-12T01:21:10.287Z,3.38
2023-05-12T01:21:22.281Z,2.55
2023-05-12T01:21:34.243Z,2.45
2023-05-12T01:21:46.188Z,2.50
2023-05-12T01:21:59.227Z,2.58
2023-05-12T01:22:12.620Z,2.63
2023-05-12T01:22:25.931Z,5.50
2023-05-12T01:22:38.918Z,5.40
2023-05-12T01:22:52.430Z,5.00
2023-05-12T01:23:08.601Z,4.35
2023-05-12T01:23:27.327Z,2.10
2023-05-12T01:23:44.501Z,2.05
2023-05-12T01:23:59.850Z,3.47
2023-05-12T01:24:12.158Z,3.78
2023-05-12T01:24:27.087Z,2.40
2023-05-12T01:24:45.231Z,2.00
2023-05-12T01:24:59.369Z,1.65
2023-05-12T01:25:12.150Z,1.58
2023-05-12T01:25:25.076Z,1.75
2023-05-12T01:25:39.444Z,4.35
2023-05-12T01:25:52.573Z,5.28
2023-05-12T01:26:08.531Z,3.38
2023-05-12T01:26:20.703Z,1.80
2023-05-12T01:26:33.348Z,1.98
2023-05-12T01:26:45.494Z,3.17
2023-05-12T01:26:58.568Z,3.00
2023-05-12T01:27:11.244Z,1.60
2023-05-12T01:27:25.741Z,1.80
2023-05-12T01:27:40.189Z,1.70
2023-05-12T01:27:53.251Z,1.70
2023-05-12T01:28:06.348Z,1.90
2023-05-12T01:28:18.868Z,2.00
2023-05-12T01:28:30.929Z,1.75
2023-05-12T01:28:43.087Z,1.70
2023-05-12T01:28:55.876Z,1.60
2023-05-12T01:29:07.863Z,1.60
2023-05-12T01:29:21.229Z,1.60
2023-05-12T01:29:33.638Z,2.45
2023-05-12T01:29:47.066Z,2.70
2023-05-12T01:30:00.973Z,2.35
2023-05-12T01:30:17.102Z,2.13
2023-05-12T01:30:29.610Z,1.88
2023-05-12T01:30:42.726Z,2.00
2023-05-12T01:30:54.780Z,1.90
2023-05-12T01:31:08.337Z,1.90
2023-05-12T01:31:21.184Z,1.90
2023-05-12T01:31:33.687Z,1.80
2023-05-12T01:31:46.221Z,3.17
2023-05-12T01:31:58.944Z,3.28
2023-05-12T01:32:11.082Z,2.80
2023-05-12T01:32:23.548Z,2.42
2023-05-12T01:32:36.472Z,2.08
2023-05-12T01:32:48.890Z,2.00
2023-05-12T01:33:01.440Z,1.85
2023-05-12T01:33:14.178Z,1.83
2023-05-12T01:33:26.330Z,1.73
2023-05-12T01:33:38.668Z,2.58
2023-05-12T01:33:50.636Z,2.60
2023-05-12T01:34:02.543Z,2.80
2023-05-12T01:34:18.463Z,2.97
2023-05-12T01:34:30.648Z,2.70
2023-05-12T01:34:43.430Z,1.67
2023-05-12T01:34:55.422Z,2.03
2023-05-12T01:35:07.697Z,2.08
2023-05-12T01:35:19.644Z,2.15
2023-05-12T01:35:31.586Z,2.10
2023-05-12T01:35:43.530Z,2.50
2023-05-12T01:35:55.457Z,3.10
2023-05-12T01:36:07.699Z,2.90
2023-05-12T01:36:19.721Z,2.80
2023-05-12T01:36:31.688Z,1.95
2023-05-12T01:36:43.977Z,1.90
2023-05-12T01:36:55.910Z,2.78
2023-05-12T01:37:09.154Z,3.88
2023-05-12T01:37:21.057Z,5.03
2023-05-12T01:37:33.230Z,3.63
2023-05-12T01:37:46.325Z,2.10
2023-05-12T01:37:58.283Z,2.05
2023-05-12T01:38:10.281Z,2.08
2023-05-12T01:38:22.915Z,2.20
2023-05-12T01:38:34.815Z,2.22
2023-05-12T01:38:46.768Z,2.17
2023-05-12T01:38:58.654Z,2.10
2023-05-12T01:39:10.605Z,2.08
2023-05-12T01:39:22.495Z,2.22
2023-05-12T01:39:34.420Z,2.55
2023-05-12T01:39:46.327Z,2.72
2023-05-12T01:39:58.211Z,2.55
2023-05-12T01:40:10.402Z,2.37
2023-05-12T01:40:22.723Z,2.20
2023-05-12T01:40:34.756Z,2.25
2023-05-12T01:40:46.688Z,2.25
2023-05-12T01:40:58.702Z,2.15
2023-05-12T01:41:10.600Z,2.05
2023-05-12T01:41:22.520Z,2.30
2023-05-12T01:41:34.398Z,2.40
2023-05-12T01:41:46.325Z,2.30
2023-05-12T01:41:58.259Z,2.20
2023-05-12T01:42:13.283Z,3.60
2023-05-12T01:42:25.228Z,3.80
2023-05-12T01:42:40.244Z,3.15
2023-05-12T01:42:52.424Z,4.10
2023-05-12T01:43:04.512Z,3.20
2023-05-12T01:43:16.404Z,3.00
2023-05-12T01:43:28.358Z,2.00
2023-05-12T01:43:40.285Z,2.00
2023-05-12T01:43:52.203Z,2.63
2023-05-12T01:44:04.313Z,2.83
2023-05-12T01:44:16.291Z,2.63
2023-05-12T01:44:28.252Z,2.97
2023-05-12T01:44:40.172Z,2.65
2023-05-12T01:44:52.130Z,2.85
2023-05-12T01:45:04.304Z,2.75
2023-05-12T01:45:16.358Z,2.75
2023-05-12T01:45:28.370Z,2.28
2023-05-12T01:45:42.523Z,2.55
2023-05-12T01:45:54.466Z,2.60
2023-05-12T01:46:06.380Z,2.25
2023-05-12T01:46:18.385Z,2.00
2023-05-12T01:46:30.771Z,1.90
2023-05-12T01:46:42.742Z,2.10
2023-05-12T01:46:54.719Z,2.28
2023-05-12T01:47:09.829Z,2.17
2023-05-12T01:47:21.979Z,1.95
2023-05-12T01:47:33.965Z,2.03
2023-05-12T01:47:45.994Z,2.78
2023-05-12T01:47:57.964Z,3.05
2023-05-12T01:48:09.978Z,2.35
2023-05-12T01:48:21.858Z,2.30
2023-05-12T01:48:33.751Z,2.30
2023-05-12T01:48:45.657Z,2.30
2023-05-12T01:48:57.563Z,2.38
2023-05-12T01:49:09.475Z,3.50
2023-05-12T01:49:21.449Z,3.42
2023-05-12T01:49:33.382Z,2.30
2023-05-12T01:49:45.636Z,2.40
2023-05-12T01:49:57.618Z,2.40
2023-05-12T01:50:10.293Z,3.10
2023-05-12T01:50:22.363Z,3.00
2023-05-12T01:50:34.390Z,2.70
2023-05-12T01:50:46.357Z,2.65
2023-05-12T01:51:01.037Z,3.25
2023-05-12T01:51:13.177Z,4.05
2023-05-12T01:51:25.086Z,5.15
2023-05-12T01:51:36.977Z,5.47
2023-05-12T01:51:49.192Z,3.22
2023-05-12T01:52:01.085Z,3.60
2023-05-12T01:52:13.115Z,3.60
2023-05-12T01:52:25.203Z,2.30
2023-05-12T01:52:37.225Z,2.28
2023-05-12T01:52:49.242Z,2.38
2023-05-12T01:53:01.224Z,2.40
2023-05-12T01:53:13.280Z,2.33
2023-05-12T01:53:25.222Z,2.83
2023-05-12T01:53:37.147Z,3.15
2023-05-12T01:53:49.058Z,3.30
2023-05-12T01:54:00.986Z,3.00
2023-05-12T01:54:13.039Z,2.60
2023-05-12T01:54:24.920Z,2.25
2023-05-12T01:54:36.928Z,2.28
2023-05-12T01:54:49.547Z,2.53
2023-05-12T01:55:01.575Z,3.20
2023-05-12T01:55:13.535Z,2.85
2023-05-12T01:55:25.471Z,2.70
2023-05-12T01:55:37.400Z,2.42
2023-05-12T01:55:52.009Z,2.75
2023-05-12T01:56:03.977Z,3.35
2023-05-12T01:56:15.925Z,3.67
2023-05-12T01:56:28.830Z,3.33
2023-05-12T01:56:41.060Z,3.78
2023-05-12T01:56:52.984Z,3.05
2023-05-12T01:57:05.803Z,3.08
2023-05-12T01:57:18.168Z,2.95
2023-05-12T01:57:30.057Z,3.20
2023-05-12T01:57:41.983Z,2.95
2023-05-12T01:57:53.869Z,2.95
2023-05-12T01:58:05.852Z,2.97
2023-05-12T01:58:19.398Z,2.80
2023-05-12T01:58:31.313Z,2.75
2023-05-12T01:58:43.269Z,2.67
2023-05-12T01:58:55.403Z,3.08
2023-05-12T01:59:07.753Z,3.00
2023-05-12T01:59:19.756Z,3.17
2023-05-12T01:59:31.834Z,2.78
2023-05-12T01:59:43.971Z,2.75
2023-05-12T01:59:55.984Z,2.90
2023-05-12T02:00:08.878Z,3.90
2023-05-12T02:00:21.780Z,4.05
2023-05-12T02:00:33.924Z,3.85
2023-05-12T02:00:45.873Z,3.53
2023-05-12T02:00:57.807Z,3.47
2023-05-12T02:01:09.771Z,3.30
2023-05-12T02:01:23.161Z,3.38
2023-05-12T02:01:35.297Z,3.17
2023-05-12T02:01:47.213Z,3.08
2023-05-12T02:01:59.280Z,3.33
2023-05-12T02:02:12.364Z,6.30
2023-05-12T02:02:24.500Z,6.07
2023-05-12T02:02:36.621Z,3.55
2023-05-12T02:02:48.623Z,3.17
2023-05-12T02:03:00.712Z,2.80
2023-05-12T02:03:12.844Z,2.88
2023-05-12T02:03:24.923Z,2.95
2023-05-12T02:03:37.938Z,3.05
2023-05-12T02:03:50.139Z,2.92
2023-05-12T02:04:03.791Z,2.95
2023-05-12T02:04:16.128Z,2.90
2023-05-12T02:04:28.326Z,3.10
2023-05-12T02:04:40.381Z,3.40
2023-05-12T02:04:52.502Z,3.10
2023-05-12T02:05:04.783Z,3.83
2023-05-12T02:05:17.418Z,3.40
2023-05-12T02:05:29.671Z,3.13
2023-05-12T02:05:41.570Z,2.83
2023-05-12T02:05:53.496Z,3.60
2023-05-12T02:06:05.596Z,4.03
2023-05-12T02:06:17.585Z,4.20
2023-05-12T02:06:29.582Z,3.40
2023-05-12T02:06:41.672Z,3.00
2023-05-12T02:06:53.597Z,3.10
2023-05-12T02:07:05.478Z,3.28
2023-05-12T02:07:17.414Z,3.47
2023-05-12T02:07:29.313Z,2.78
2023-05-12T02:07:41.350Z,3.88
2023-05-12T02:07:53.467Z,3.78
2023-05-12T02:08:05.460Z,3.60
2023-05-12T02:08:17.391Z,3.05
2023-05-12T02:08:29.274Z,2.90
2023-05-12T02:08:41.635Z,2.47
2023-05-12T02:08:53.570Z,2.65
2023-05-12T02:09:05.551Z,2.63
2023-05-12T02:09:17.524Z,2.88
2023-05-12T02:09:29.754Z,2.92
2023-05-12T02:09:41.716Z,2.90
2023-05-12T02:09:53.669Z,2.60
2023-05-12T02:10:06.321Z,4.72
2023-05-12T02:10:18.682Z,4.78
2023-05-12T02:10:30.836Z,2.55
2023-05-12T02:10:42.786Z,3.00
2023-05-12T02:11:08.084Z,3.50
2023-05-12T02:11:23.047Z,3.03
2023-05-12T02:11:34.977Z,2.70
2023-05-12T02:11:46.868Z,2.83
2023-05-12T02:11:58.814Z,2.70
2023-05-12T02:12:10.765Z,2.65
2023-05-12T02:12:22.770Z,2.55
2023-05-12T02:12:34.854Z,2.70
2023-05-12T02:12:46.785Z,3.38
2023-05-12T02:12:58.679Z,4.40
2023-05-12T02:13:10.639Z,4.00
2023-05-12T02:13:23.241Z,3.78
2023-05-12T02:13:35.425Z,3.15
2023-05-12T02:13:47.649Z,2.90
2023-05-12T02:13:59.608Z,2.80
2023-05-12T02:14:11.666Z,2.85
2023-05-12T02:14:23.621Z,2.72
2023-05-12T02:14:35.584Z,3.00
2023-05-12T02:14:47.521Z,2.97
2023-05-12T02:14:59.438Z,3.03
2023-05-12T02:15:11.510Z,3.25
2023-05-12T02:15:23.495Z,3.67
2023-05-12T02:15:35.407Z,6.00
2023-05-12T02:15:47.489Z,6.05
2023-05-12T02:15:59.496Z,3.83
2023-05-12T02:16:11.900Z,3.47
2023-05-12T02:16:24.071Z,3.38
2023-05-12T02:16:36.160Z,3.58
2023-05-12T02:16:52.473Z,4.97
2023-05-12T02:17:07.446Z,5.72
2023-05-12T02:17:19.425Z,4.40
2023-05-12T02:17:31.408Z,3.70
2023-05-12T02:17:43.362Z,3.75
2023-05-12T02:17:55.467Z,4.18
2023-05-12T02:18:07.807Z,4.18
2023-05-12T02:18:19.848Z,3.58
2023-05-12T02:18:31.951Z,3.92
2023-05-12T02:18:44.066Z,6.20
2023-05-12T02:18:56.091Z,6.05
2023-05-12T02:19:08.049Z,4.68
2023-05-12T02:19:20.875Z,3.15
2023-05-12T02:19:32.882Z,3.83
2023-05-12T02:19:44.773Z,4.25
2023-05-12T02:19:56.666Z,4.13
2023-05-12T02:20:09.416Z,3.33
2023-05-12T02:20:21.913Z,3.55
2023-05-12T02:20:34.056Z,3.97
2023-05-12T02:20:46.044Z,3.55
2023-05-12T02:20:57.963Z,3.30
2023-05-12T02:21:09.886Z,3.40
2023-05-12T02:21:21.900Z,3.33
2023-05-12T02:21:36.616Z,3.38
2023-05-12T02:21:48.810Z,3.20
2023-05-12T02:22:00.714Z,3.33
2023-05-12T02:22:12.604Z,3.50
2023-05-12T02:22:24.562Z,3.63
2023-05-12T02:22:36.464Z,3.65
2023-05-12T02:22:48.359Z,2.92
2023-05-12T02:23:00.842Z,2.95
2023-05-12T02:23:12.832Z,3.22
2023-05-12T02:23:24.788Z,3.83
2023-05-12T02:23:37.100Z,3.63
2023-05-12T02:23:49.041Z,3.33
2023-05-12T02:24:01.013Z,4.03
2023-05-12T02:24:14.794Z,3.85
2023-05-12T02:24:26.950Z,5.25
2023-05-12T02:24:38.872Z,4.70
2023-05-12T02:24:50.918Z,3.95
2023-05-12T02:25:02.866Z,4.63
2023-05-12T02:25:14.866Z,4.60
2023-05-12T02:25:26.970Z,4.80
2023-05-12T02:25:38.861Z,4.45
2023-05-12T02:25:50.802Z,3.85
2023-05-12T02:26:02.788Z,5.40
2023-05-12T02:26:14.831Z,5.55
2023-05-12T02:26:26.801Z,4.30
2023-05-12T02:26:38.703Z,3.15
2023-05-12T02:26:50.740Z,3.13
2023-05-12T02:27:02.691Z,3.08
2023-05-12T02:27:14.671Z,3.15
2023-05-12T02:27:26.596Z,3.38
2023-05-12T02:27:38.649Z,4.13
2023-05-12T02:27:50.731Z,4.78
2023-05-12T02:28:02.768Z,4.65
2023-05-12T02:28:14.685Z,3.25
2023-05-12T02:28:29.293Z,4.53
2023-05-12T02:28:41.219Z,4.32
2023-05-12T02:28:53.176Z,3.75
2023-05-12T02:29:05.199Z,3.28
2023-05-12T02:29:17.133Z,3.35
2023-05-12T02:29:29.036Z,3.22
2023-05-12T02:29:41.949Z,3.80
2023-05-12T02:29:54.040Z,3.55
2023-05-12T02:30:06.629Z,3.28
2023-05-12T02:30:18.781Z,3.38
2023-05-12T02:30:30.889Z,3.60
2023-05-12T02:30:48.558Z,3.15
2023-05-12T02:31:00.547Z,3.35
2023-05-12T02:31:12.449Z,4.30
2023-05-12T02:31:24.502Z,4.63
2023-05-12T02:31:36.611Z,5.32
2023-05-12T02:31:48.617Z,4.63
2023-05-12T02:32:00.555Z,2.90
2023-05-12T02:32:12.604Z,2.85
2023-05-12T02:32:28.051Z,3.30
2023-05-12T02:32:40.126Z,4.65
2023-05-12T02:32:52.129Z,5.20
2023-05-12T02:33:05.848Z,4.20
2023-05-12T02:33:18.929Z,3.05
2023-05-12T02:33:31.210Z,3.20
2023-05-12T02:33:43.155Z,3.42
2023-05-12T02:33:55.091Z,3.47
2023-05-12T02:34:07.088Z,3.15
2023-05-12T02:34:19.013Z,2.80
2023-05-12T02:34:30.996Z,2.92
2023-05-12T02:34:42.886Z,3.40
2023-05-12T02:34:57.448Z,3.53
2023-05-12T02:35:09.877Z,3.58
2023-05-12T02:35:21.773Z,3.58
2023-05-12T02:35:33.694Z,3.35
2023-05-12T02:35:45.816Z,2.90
2023-05-12T02:35:57.738Z,2.92
2023-05-12T02:36:09.716Z,2.90
2023-05-12T02:36:21.636Z,2.90
2023-05-12T02:36:33.718Z,2.90
2023-05-12T02:36:45.712Z,2.90
2023-05-12T02:36:57.616Z,3.28
2023-05-12T02:37:09.560Z,3.60
2023-05-12T02:37:21.497Z,3.78
2023-05-12T02:37:33.440Z,3.85
2023-05-12T02:37:45.349Z,3.60
2023-05-12T02:37:57.959Z,3.30
2023-05-12T02:38:09.985Z,2.92
2023-05-12T02:38:22.216Z,3.03
2023-05-12T02:38:34.234Z,3.15
2023-05-12T02:38:46.530Z,3.92
2023-05-12T02:38:58.636Z,4.10
2023-05-12T02:39:10.597Z,3.88
2023-05-12T02:39:22.522Z,3.55
2023-05-12T02:39:34.401Z,3.50
2023-05-12T02:39:46.343Z,6.65
2023-05-12T02:39:58.246Z,6.57
2023-05-12T02:40:10.482Z,4.55
2023-05-12T02:40:22.533Z,4.40
2023-05-12T02:40:34.638Z,4.00
2023-05-12T02:40:47.529Z,3.95
2023-05-12T02:40:59.427Z,5.63
2023-05-12T02:41:11.398Z,5.95
2023-05-12T02:41:23.266Z,5.53
2023-05-12T02:41:35.146Z,5.95
2023-05-12T02:41:47.270Z,7.10
2023-05-12T02:41:59.155Z,7.78
2023-05-12T02:42:11.056Z,7.43
2023-05-12T02:42:23.025Z,6.95
2023-05-12T02:42:36.151Z,6.30
2023-05-12T02:42:48.028Z,6.20
2023-05-12T02:43:03.066Z,6.25
2023-05-12T02:43:15.001Z,6.70
2023-05-12T02:43:26.932Z,6.95
2023-05-12T02:43:39.195Z,8.27
2023-05-12T02:43:51.085Z,7.65
2023-05-12T02:44:03.039Z,7.13
2023-05-12T02:44:19.307Z,4.40
2023-05-12T02:44:31.243Z,4.90
2023-05-12T02:44:43.161Z,7.18
2023-05-12T02:44:55.090Z,7.65
2023-05-12T02:45:07.580Z,6.63
2023-05-12T02:45:22.330Z,6.30
2023-05-12T02:45:34.984Z,6.47
2023-05-12T02:45:47.262Z,6.50
2023-05-12T02:45:59.255Z,5.60
2023-05-12T02:46:11.297Z,6.88
2023-05-12T02:46:23.261Z,7.00
2023-05-12T02:46:35.273Z,6.05
2023-05-12T02:46:47.212Z,6.03
2023-05-12T02:46:59.132Z,5.93
2023-05-12T02:47:11.125Z,5.78
2023-05-12T02:47:23.032Z,6.25
2023-05-12T02:47:35.036Z,6.85
2023-05-12T02:47:46.988Z,5.80
2023-05-12T02:47:58.993Z,5.55